sensor_id;sensor_type;location;lat;lon;timestamp;P1;durP1;ratioP1;P2;durP2;ratioP2
73428;SDS011;61643;49.564;17.412;2023-09-19T00:01:19;13.77;;;8.05;;
73428;SDS011;61643;49.564;17.412;2023-09-19T00:03:46;13.95;;;8.80;;
73428;SDS011;61643;49.564;17.412;2023-09-19T00:06:12;11.55;;;7.85;;
73428;SDS011;61643;49.564;17.412;2023-09-19T00:08:41;12.82;;;9.18;;
73428;SDS011;61643;49.564;17.412;2023-09-19T00:11:10;11.63;;;8.48;;
73428;SDS011;61643;49.564;17.412;2023-09-19T00:13:36;12.27;;;8.40;;
73428;SDS011;61643;49.564;17.412;2023-09-19T00:16:08;15.32;;;8.77;;
73428;SDS011;61643;49.564;17.412;2023-09-19T00:18:38;14.77;;;8.55;;
73428;SDS011;61643;49.564;17.412;2023-09-19T00:21:04;13.43;;;8.27;;
73428;SDS011;61643;49.564;17.412;2023-09-19T00:23:30;13.35;;;8.80;;
73428;SDS011;61643;49.564;17.412;2023-09-19T00:25:59;12.10;;;9.48;;
73428;SDS011;61643;49.564;17.412;2023-09-19T00:28:26;12.38;;;8.27;;
73428;SDS011;61643;49.564;17.412;2023-09-19T00:30:53;12.60;;;8.13;;
73428;SDS011;61643;49.564;17.412;2023-09-19T00:35:47;17.15;;;10.05;;
73428;SDS011;61643;49.564;17.412;2023-09-19T00:38:13;15.88;;;9.77;;
73428;SDS011;61643;49.564;17.412;2023-09-19T00:40:45;17.08;;;10.57;;
73428;SDS011;61643;49.564;17.412;2023-09-19T00:43:12;13.43;;;9.88;;
73428;SDS011;61643;49.564;17.412;2023-09-19T00:45:38;14.55;;;9.75;;
73428;SDS011;61643;49.564;17.412;2023-09-19T00:48:08;14.80;;;9.82;;
73428;SDS011;61643;49.564;17.412;2023-09-19T00:50:35;15.82;;;10.35;;
73428;SDS011;61643;49.564;17.412;2023-09-19T00:53:02;15.07;;;9.80;;
73428;SDS011;61643;49.564;17.412;2023-09-19T00:55:38;17.42;;;10.48;;
73428;SDS011;61643;49.564;17.412;2023-09-19T00:58:05;18.55;;;10.73;;
73428;SDS011;61643;49.564;17.412;2023-09-19T01:00:33;15.15;;;10.88;;
73428;SDS011;61643;49.564;17.412;2023-09-19T01:03:00;15.52;;;10.75;;
73428;SDS011;61643;49.564;17.412;2023-09-19T01:05:29;15.38;;;10.65;;
73428;SDS011;61643;49.564;17.412;2023-09-19T01:07:55;17.33;;;10.07;;
73428;SDS011;61643;49.564;17.412;2023-09-19T01:10:21;17.08;;;10.38;;
73428;SDS011;61643;49.564;17.412;2023-09-19T01:12:54;15.57;;;10.57;;
73428;SDS011;61643;49.564;17.412;2023-09-19T01:20:58;17.35;;;10.38;;
73428;SDS011;61643;49.564;17.412;2023-09-19T01:26:28;14.18;;;8.73;;
73428;SDS011;61643;49.564;17.412;2023-09-19T01:32:17;14.32;;;8.25;;
73428;SDS011;61643;49.564;17.412;2023-09-19T01:34:51;16.10;;;8.85;;
73428;SDS011;61643;49.564;17.412;2023-09-19T01:37:19;16.35;;;9.10;;
73428;SDS011;61643;49.564;17.412;2023-09-19T01:39:57;12.20;;;8.27;;
73428;SDS011;61643;49.564;17.412;2023-09-19T01:47:53;11.57;;;6.65;;
73428;SDS011;61643;49.564;17.412;2023-09-19T01:50:32;10.18;;;6.88;;
73428;SDS011;61643;49.564;17.412;2023-09-19T01:53:27;9.63;;;5.65;;
73428;SDS011;61643;49.564;17.412;2023-09-19T01:55:57;12.07;;;6.53;;
73428;SDS011;61643;49.564;17.412;2023-09-19T02:01:16;8.00;;;4.38;;
73428;SDS011;61643;49.564;17.412;2023-09-19T02:03:46;8.27;;;3.97;;
73428;SDS011;61643;49.564;17.412;2023-09-19T02:06:17;6.25;;;4.10;;
73428;SDS011;61643;49.564;17.412;2023-09-19T02:08:44;7.28;;;3.58;;
73428;SDS011;61643;49.564;17.412;2023-09-19T02:11:11;5.70;;;3.70;;
73428;SDS011;61643;49.564;17.412;2023-09-19T02:13:38;4.82;;;3.17;;
73428;SDS011;61643;49.564;17.412;2023-09-19T02:16:06;6.38;;;3.55;;
73428;SDS011;61643;49.564;17.412;2023-09-19T02:18:32;5.60;;;3.45;;
73428;SDS011;61643;49.564;17.412;2023-09-19T02:21:01;5.15;;;3.13;;
73428;SDS011;61643;49.564;17.412;2023-09-19T02:23:29;4.72;;;3.15;;
73428;SDS011;61643;49.564;17.412;2023-09-19T02:25:59;5.35;;;2.80;;
73428;SDS011;61643;49.564;17.412;2023-09-19T02:30:58;4.43;;;2.20;;
73428;SDS011;61643;49.564;17.412;2023-09-19T02:33:24;3.92;;;2.45;;
73428;SDS011;61643;49.564;17.412;2023-09-19T02:35:54;7.55;;;2.30;;
73428;SDS011;61643;49.564;17.412;2023-09-19T02:38:23;4.88;;;2.50;;
73428;SDS011;61643;49.564;17.412;2023-09-19T02:40:54;3.38;;;2.00;;
73428;SDS011;61643;49.564;17.412;2023-09-19T02:43:21;4.43;;;2.00;;
73428;SDS011;61643;49.564;17.412;2023-09-19T02:45:47;3.50;;;2.10;;
73428;SDS011;61643;49.564;17.412;2023-09-19T02:48:18;3.05;;;1.80;;
73428;SDS011;61643;49.564;17.412;2023-09-19T02:50:45;5.82;;;2.15;;
73428;SDS011;61643;49.564;17.412;2023-09-19T02:53:11;2.80;;;2.28;;
73428;SDS011;61643;49.564;17.412;2023-09-19T02:55:38;4.75;;;2.08;;
73428;SDS011;61643;49.564;17.412;2023-09-19T02:58:06;4.80;;;1.73;;
73428;SDS011;61643;49.564;17.412;2023-09-19T03:00:39;2.90;;;1.73;;
73428;SDS011;61643;49.564;17.412;2023-09-19T03:05:34;4.03;;;1.85;;
73428;SDS011;61643;49.564;17.412;2023-09-19T03:08:00;3.65;;;1.83;;
73428;SDS011;61643;49.564;17.412;2023-09-19T03:10:26;4.25;;;1.80;;
73428;SDS011;61643;49.564;17.412;2023-09-19T03:12:53;3.92;;;1.65;;
73428;SDS011;61643;49.564;17.412;2023-09-19T03:15:19;3.53;;;1.55;;
73428;SDS011;61643;49.564;17.412;2023-09-19T03:17:46;2.42;;;1.27;;
73428;SDS011;61643;49.564;17.412;2023-09-19T03:20:14;3.70;;;1.20;;
73428;SDS011;61643;49.564;17.412;2023-09-19T03:22:45;4.35;;;1.00;;
73428;SDS011;61643;49.564;17.412;2023-09-19T03:25:12;5.65;;;0.90;;
73428;SDS011;61643;49.564;17.412;2023-09-19T03:27:38;1.35;;;0.80;;
73428;SDS011;61643;49.564;17.412;2023-09-19T03:30:05;2.08;;;0.90;;
73428;SDS011;61643;49.564;17.412;2023-09-19T03:32:34;2.90;;;1.05;;
73428;SDS011;61643;49.564;17.412;2023-09-19T03:35:02;1.83;;;1.00;;
73428;SDS011;61643;49.564;17.412;2023-09-19T03:37:31;3.13;;;0.75;;
73428;SDS011;61643;49.564;17.412;2023-09-19T03:39:58;2.28;;;0.93;;
73428;SDS011;61643;49.564;17.412;2023-09-19T03:42:24;2.78;;;1.27;;
73428;SDS011;61643;49.564;17.412;2023-09-19T03:47:18;1.13;;;1.00;;
73428;SDS011;61643;49.564;17.412;2023-09-19T03:49:47;2.20;;;1.27;;
73428;SDS011;61643;49.564;17.412;2023-09-19T03:52:13;2.53;;;1.20;;
73428;SDS011;61643;49.564;17.412;2023-09-19T03:57:07;2.25;;;1.20;;
73428;SDS011;61643;49.564;17.412;2023-09-19T03:59:33;2.25;;;1.27;;
73428;SDS011;61643;49.564;17.412;2023-09-19T04:04:27;1.70;;;1.27;;
73428;SDS011;61643;49.564;17.412;2023-09-19T04:06:54;2.80;;;1.45;;
73428;SDS011;61643;49.564;17.412;2023-09-19T04:09:20;3.58;;;1.30;;
73428;SDS011;61643;49.564;17.412;2023-09-19T04:11:47;5.72;;;1.85;;
73428;SDS011;61643;49.564;17.412;2023-09-19T04:14:15;6.78;;;1.73;;
73428;SDS011;61643;49.564;17.412;2023-09-19T04:16:41;2.67;;;1.63;;
73428;SDS011;61643;49.564;17.412;2023-09-19T04:19:07;2.80;;;1.20;;
73428;SDS011;61643;49.564;17.412;2023-09-19T04:21:33;1.95;;;1.40;;
73428;SDS011;61643;49.564;17.412;2023-09-19T04:23:59;1.75;;;1.50;;
73428;SDS011;61643;49.564;17.412;2023-09-19T04:26:26;4.20;;;1.77;;
73428;SDS011;61643;49.564;17.412;2023-09-19T04:28:52;3.70;;;1.63;;
73428;SDS011;61643;49.564;17.412;2023-09-19T04:31:19;2.42;;;1.35;;
73428;SDS011;61643;49.564;17.412;2023-09-19T04:33:47;2.80;;;1.52;;
73428;SDS011;61643;49.564;17.412;2023-09-19T04:36:13;3.38;;;1.50;;
73428;SDS011;61643;49.564;17.412;2023-09-19T04:38:39;2.85;;;1.60;;
73428;SDS011;61643;49.564;17.412;2023-09-19T04:41:05;2.60;;;1.80;;
73428;SDS011;61643;49.564;17.412;2023-09-19T04:43:31;4.85;;;1.90;;
73428;SDS011;61643;49.564;17.412;2023-09-19T04:45:57;3.35;;;1.50;;
73428;SDS011;61643;49.564;17.412;2023-09-19T04:48:26;2.40;;;1.67;;
73428;SDS011;61643;49.564;17.412;2023-09-19T04:50:51;3.55;;;1.60;;
73428;SDS011;61643;49.564;17.412;2023-09-19T04:53:18;3.20;;;1.70;;
73428;SDS011;61643;49.564;17.412;2023-09-19T04:55:49;3.67;;;2.00;;
73428;SDS011;61643;49.564;17.412;2023-09-19T04:58:18;5.43;;;1.88;;
73428;SDS011;61643;49.564;17.412;2023-09-19T05:00:45;3.85;;;1.80;;
73428;SDS011;61643;49.564;17.412;2023-09-19T05:03:11;6.65;;;2.40;;
73428;SDS011;61643;49.564;17.412;2023-09-19T05:05:37;6.72;;;3.08;;
73428;SDS011;61643;49.564;17.412;2023-09-19T05:08:04;5.25;;;2.90;;
73428;SDS011;61643;49.564;17.412;2023-09-19T05:10:31;7.65;;;2.85;;
73428;SDS011;61643;49.564;17.412;2023-09-19T05:12:58;7.50;;;2.88;;
73428;SDS011;61643;49.564;17.412;2023-09-19T05:15:24;5.38;;;2.03;;
73428;SDS011;61643;49.564;17.412;2023-09-19T05:17:50;5.35;;;2.80;;
73428;SDS011;61643;49.564;17.412;2023-09-19T05:20:17;7.05;;;2.28;;
73428;SDS011;61643;49.564;17.412;2023-09-19T05:23:00;5.15;;;1.58;;
73428;SDS011;61643;49.564;17.412;2023-09-19T05:25:33;3.90;;;1.58;;
73428;SDS011;61643;49.564;17.412;2023-09-19T05:28:03;5.15;;;1.42;;
73428;SDS011;61643;49.564;17.412;2023-09-19T05:30:31;2.20;;;1.42;;
73428;SDS011;61643;49.564;17.412;2023-09-19T05:32:58;3.42;;;1.42;;
73428;SDS011;61643;49.564;17.412;2023-09-19T05:35:24;3.63;;;1.33;;
73428;SDS011;61643;49.564;17.412;2023-09-19T05:37:51;4.22;;;1.35;;
73428;SDS011;61643;49.564;17.412;2023-09-19T05:40:18;2.55;;;1.40;;
73428;SDS011;61643;49.564;17.412;2023-09-19T05:42:45;2.35;;;1.27;;
73428;SDS011;61643;49.564;17.412;2023-09-19T05:45:11;1.38;;;1.02;;
73428;SDS011;61643;49.564;17.412;2023-09-19T05:47:38;3.53;;;1.20;;
73428;SDS011;61643;49.564;17.412;2023-09-19T05:50:11;3.55;;;1.40;;
73428;SDS011;61643;49.564;17.412;2023-09-19T05:52:37;2.33;;;1.40;;
73428;SDS011;61643;49.564;17.412;2023-09-19T05:55:04;2.75;;;1.60;;
73428;SDS011;61643;49.564;17.412;2023-09-19T05:57:32;4.30;;;1.60;;
73428;SDS011;61643;49.564;17.412;2023-09-19T06:00:01;5.45;;;1.20;;
73428;SDS011;61643;49.564;17.412;2023-09-19T06:02:27;2.17;;;1.10;;
73428;SDS011;61643;49.564;17.412;2023-09-19T06:04:55;2.83;;;1.00;;
73428;SDS011;61643;49.564;17.412;2023-09-19T06:07:22;2.22;;;1.40;;
73428;SDS011;61643;49.564;17.412;2023-09-19T06:09:52;3.97;;;1.10;;
73428;SDS011;61643;49.564;17.412;2023-09-19T06:12:19;4.03;;;1.33;;
73428;SDS011;61643;49.564;17.412;2023-09-19T06:14:45;4.95;;;1.27;;
73428;SDS011;61643;49.564;17.412;2023-09-19T06:17:11;3.10;;;1.40;;
73428;SDS011;61643;49.564;17.412;2023-09-19T06:19:37;4.32;;;1.33;;
73428;SDS011;61643;49.564;17.412;2023-09-19T06:22:03;1.75;;;1.20;;
73428;SDS011;61643;49.564;17.412;2023-09-19T06:24:29;2.08;;;1.20;;
73428;SDS011;61643;49.564;17.412;2023-09-19T06:26:56;3.05;;;1.20;;
73428;SDS011;61643;49.564;17.412;2023-09-19T06:29:22;5.60;;;1.40;;
73428;SDS011;61643;49.564;17.412;2023-09-19T06:31:50;1.42;;;0.95;;
73428;SDS011;61643;49.564;17.412;2023-09-19T06:34:16;5.82;;;1.30;;
73428;SDS011;61643;49.564;17.412;2023-09-19T06:36:43;5.03;;;1.17;;
73428;SDS011;61643;49.564;17.412;2023-09-19T06:39:10;5.22;;;1.35;;
73428;SDS011;61643;49.564;17.412;2023-09-19T06:41:37;4.65;;;1.48;;
73428;SDS011;61643;49.564;17.412;2023-09-19T06:44:04;5.28;;;1.60;;
73428;SDS011;61643;49.564;17.412;2023-09-19T06:46:31;3.63;;;1.30;;
73428;SDS011;61643;49.564;17.412;2023-09-19T06:49:01;4.15;;;1.40;;
73428;SDS011;61643;49.564;17.412;2023-09-19T06:51:32;2.70;;;1.35;;
73428;SDS011;61643;49.564;17.412;2023-09-19T06:54:01;2.25;;;1.48;;
73428;SDS011;61643;49.564;17.412;2023-09-19T06:56:27;3.35;;;1.70;;
73428;SDS011;61643;49.564;17.412;2023-09-19T06:58:53;4.80;;;1.63;;
73428;SDS011;61643;49.564;17.412;2023-09-19T07:01:19;3.83;;;1.80;;
73428;SDS011;61643;49.564;17.412;2023-09-19T07:03:45;4.07;;;1.70;;
73428;SDS011;61643;49.564;17.412;2023-09-19T07:06:11;3.97;;;1.90;;
73428;SDS011;61643;49.564;17.412;2023-09-19T07:08:37;5.13;;;2.53;;
73428;SDS011;61643;49.564;17.412;2023-09-19T07:11:04;6.82;;;3.15;;
73428;SDS011;61643;49.564;17.412;2023-09-19T07:13:31;6.70;;;2.92;;
73428;SDS011;61643;49.564;17.412;2023-09-19T07:15:58;14.93;;;6.90;;
73428;SDS011;61643;49.564;17.412;2023-09-19T07:18:25;18.65;;;8.35;;
73428;SDS011;61643;49.564;17.412;2023-09-19T07:20:51;21.17;;;11.00;;
73428;SDS011;61643;49.564;17.412;2023-09-19T07:23:26;17.95;;;10.27;;
73428;SDS011;61643;49.564;17.412;2023-09-19T07:25:56;12.07;;;6.95;;
73428;SDS011;61643;49.564;17.412;2023-09-19T07:28:22;12.02;;;6.25;;
73428;SDS011;61643;49.564;17.412;2023-09-19T07:30:48;9.27;;;4.55;;
73428;SDS011;61643;49.564;17.412;2023-09-19T07:33:14;8.52;;;4.75;;
73428;SDS011;61643;49.564;17.412;2023-09-19T07:35:40;11.52;;;5.75;;
73428;SDS011;61643;49.564;17.412;2023-09-19T07:38:11;10.65;;;6.93;;
73428;SDS011;61643;49.564;17.412;2023-09-19T07:40:37;12.65;;;7.35;;
73428;SDS011;61643;49.564;17.412;2023-09-19T07:43:03;15.00;;;8.25;;
73428;SDS011;61643;49.564;17.412;2023-09-19T07:45:33;14.52;;;8.32;;
73428;SDS011;61643;49.564;17.412;2023-09-19T07:47:59;11.38;;;6.82;;
73428;SDS011;61643;49.564;17.412;2023-09-19T07:50:29;9.43;;;4.95;;
73428;SDS011;61643;49.564;17.412;2023-09-19T07:52:55;7.38;;;3.63;;
73428;SDS011;61643;49.564;17.412;2023-09-19T07:55:22;3.72;;;2.67;;
73428;SDS011;61643;49.564;17.412;2023-09-19T07:57:54;3.67;;;2.30;;
73428;SDS011;61643;49.564;17.412;2023-09-19T08:00:20;3.55;;;2.10;;
73428;SDS011;61643;49.564;17.412;2023-09-19T08:02:46;6.10;;;1.90;;
73428;SDS011;61643;49.564;17.412;2023-09-19T08:05:13;6.30;;;1.90;;
73428;SDS011;61643;49.564;17.412;2023-09-19T08:07:42;3.28;;;1.60;;
73428;SDS011;61643;49.564;17.412;2023-09-19T08:10:11;2.90;;;1.65;;
73428;SDS011;61643;49.564;17.412;2023-09-19T08:12:41;5.05;;;1.90;;
73428;SDS011;61643;49.564;17.412;2023-09-19T08:15:12;3.25;;;1.40;;
73428;SDS011;61643;49.564;17.412;2023-09-19T08:17:40;1.98;;;1.10;;
73428;SDS011;61643;49.564;17.412;2023-09-19T08:20:06;3.90;;;1.40;;
73428;SDS011;61643;49.564;17.412;2023-09-19T08:22:33;3.53;;;1.30;;
73428;SDS011;61643;49.564;17.412;2023-09-19T08:25:00;2.63;;;1.48;;
73428;SDS011;61643;49.564;17.412;2023-09-19T08:27:30;6.97;;;1.58;;
73428;SDS011;61643;49.564;17.412;2023-09-19T08:29:56;3.38;;;1.20;;
73428;SDS011;61643;49.564;17.412;2023-09-19T08:32:22;4.07;;;1.60;;
73428;SDS011;61643;49.564;17.412;2023-09-19T08:34:50;3.85;;;1.60;;
73428;SDS011;61643;49.564;17.412;2023-09-19T08:37:15;2.72;;;1.40;;
73428;SDS011;61643;49.564;17.412;2023-09-19T08:39:44;2.42;;;1.50;;
73428;SDS011;61643;49.564;17.412;2023-09-19T08:42:10;3.00;;;1.42;;
73428;SDS011;61643;49.564;17.412;2023-09-19T08:44:38;3.47;;;1.30;;
73428;SDS011;61643;49.564;17.412;2023-09-19T08:47:10;2.78;;;1.63;;
73428;SDS011;61643;49.564;17.412;2023-09-19T08:52:32;2.00;;;1.50;;
73428;SDS011;61643;49.564;17.412;2023-09-19T08:55:02;3.58;;;1.98;;
73428;SDS011;61643;49.564;17.412;2023-09-19T08:57:35;3.45;;;1.85;;
73428;SDS011;61643;49.564;17.412;2023-09-19T09:00:07;5.55;;;1.70;;
73428;SDS011;61643;49.564;17.412;2023-09-19T09:02:38;4.90;;;1.70;;
73428;SDS011;61643;49.564;17.412;2023-09-19T09:05:08;3.97;;;1.85;;
73428;SDS011;61643;49.564;17.412;2023-09-19T09:07:37;3.92;;;1.73;;
73428;SDS011;61643;49.564;17.412;2023-09-19T09:10:03;6.45;;;1.65;;
73428;SDS011;61643;49.564;17.412;2023-09-19T09:12:29;2.58;;;1.45;;
73428;SDS011;61643;49.564;17.412;2023-09-19T09:14:56;3.30;;;1.75;;
73428;SDS011;61643;49.564;17.412;2023-09-19T09:17:23;1.80;;;1.23;;
73428;SDS011;61643;49.564;17.412;2023-09-19T09:19:53;6.28;;;1.70;;
73428;SDS011;61643;49.564;17.412;2023-09-19T09:22:19;4.03;;;1.35;;
73428;SDS011;61643;49.564;17.412;2023-09-19T09:24:53;4.88;;;1.63;;
73428;SDS011;61643;49.564;17.412;2023-09-19T09:27:20;2.63;;;1.50;;
73428;SDS011;61643;49.564;17.412;2023-09-19T09:29:49;2.78;;;1.80;;
73428;SDS011;61643;49.564;17.412;2023-09-19T09:34:44;3.90;;;2.17;;
73428;SDS011;61643;49.564;17.412;2023-09-19T09:37:17;3.65;;;2.10;;
73428;SDS011;61643;49.564;17.412;2023-09-19T09:42:39;4.40;;;1.85;;
73428;SDS011;61643;49.564;17.412;2023-09-19T09:47:54;3.85;;;1.55;;
73428;SDS011;61643;49.564;17.412;2023-09-19T09:50:26;2.78;;;1.73;;
73428;SDS011;61643;49.564;17.412;2023-09-19T10:01:14;2.42;;;1.70;;
73428;SDS011;61643;49.564;17.412;2023-09-19T10:03:42;2.67;;;1.58;;
73428;SDS011;61643;49.564;17.412;2023-09-19T10:06:17;3.10;;;1.45;;
73428;SDS011;61643;49.564;17.412;2023-09-19T10:09:00;1.63;;;1.52;;
73428;SDS011;61643;49.564;17.412;2023-09-19T10:11:47;4.18;;;1.80;;
73428;SDS011;61643;49.564;17.412;2023-09-19T10:14:24;5.28;;;1.90;;
73428;SDS011;61643;49.564;17.412;2023-09-19T10:16:57;3.08;;;1.80;;
73428;SDS011;61643;49.564;17.412;2023-09-19T10:19:29;3.25;;;2.10;;
73428;SDS011;61643;49.564;17.412;2023-09-19T10:22:02;4.55;;;2.28;;
73428;SDS011;61643;49.564;17.412;2023-09-19T10:24:31;2.88;;;2.20;;
73428;SDS011;61643;49.564;17.412;2023-09-19T10:26:59;4.22;;;2.53;;
73428;SDS011;61643;49.564;17.412;2023-09-19T10:29:26;3.75;;;2.10;;
73428;SDS011;61643;49.564;17.412;2023-09-19T10:31:56;3.53;;;2.38;;
73428;SDS011;61643;49.564;17.412;2023-09-19T10:34:24;3.35;;;2.30;;
73428;SDS011;61643;49.564;17.412;2023-09-19T10:36:52;4.15;;;2.60;;
73428;SDS011;61643;49.564;17.412;2023-09-19T10:39:19;3.80;;;2.50;;
73428;SDS011;61643;49.564;17.412;2023-09-19T10:41:55;2.42;;;2.15;;
73428;SDS011;61643;49.564;17.412;2023-09-19T10:44:28;4.95;;;2.60;;
73428;SDS011;61643;49.564;17.412;2023-09-19T10:46:58;4.30;;;2.90;;
73428;SDS011;61643;49.564;17.412;2023-09-19T10:49:24;10.38;;;3.15;;
73428;SDS011;61643;49.564;17.412;2023-09-19T10:51:55;4.80;;;2.90;;
73428;SDS011;61643;49.564;17.412;2023-09-19T10:54:26;4.50;;;2.83;;
73428;SDS011;61643;49.564;17.412;2023-09-19T10:56:57;6.32;;;3.00;;
73428;SDS011;61643;49.564;17.412;2023-09-19T10:59:25;7.13;;;2.83;;
73428;SDS011;61643;49.564;17.412;2023-09-19T11:01:52;5.60;;;3.15;;
73428;SDS011;61643;49.564;17.412;2023-09-19T11:04:23;4.53;;;3.20;;
73428;SDS011;61643;49.564;17.412;2023-09-19T11:07:02;3.80;;;3.20;;
73428;SDS011;61643;49.564;17.412;2023-09-19T11:14:56;5.57;;;3.17;;
73428;SDS011;61643;49.564;17.412;2023-09-19T11:30:35;3.75;;;2.60;;
73428;SDS011;61643;49.564;17.412;2023-09-19T11:33:21;3.42;;;2.97;;
73428;SDS011;61643;49.564;17.412;2023-09-19T11:43:47;5.60;;;3.00;;
73428;SDS011;61643;49.564;17.412;2023-09-19T11:49:16;3.25;;;2.42;;
73428;SDS011;61643;49.564;17.412;2023-09-19T11:51:52;4.60;;;2.35;;
73428;SDS011;61643;49.564;17.412;2023-09-19T11:54:18;3.03;;;2.15;;
73428;SDS011;61643;49.564;17.412;2023-09-19T11:56:51;3.03;;;2.70;;
73428;SDS011;61643;49.564;17.412;2023-09-19T11:59:26;128.63;;;16.27;;
73428;SDS011;61643;49.564;17.412;2023-09-19T12:01:55;5.22;;;2.95;;
73428;SDS011;61643;49.564;17.412;2023-09-19T12:04:42;7.03;;;3.10;;
73428;SDS011;61643;49.564;17.412;2023-09-19T12:07:11;5.85;;;2.70;;
73428;SDS011;61643;49.564;17.412;2023-09-19T12:09:42;3.33;;;2.15;;
73428;SDS011;61643;49.564;17.412;2023-09-19T12:12:22;2.45;;;2.20;;
73428;SDS011;61643;49.564;17.412;2023-09-19T12:14:49;5.78;;;2.95;;
73428;SDS011;61643;49.564;17.412;2023-09-19T12:17:16;4.63;;;2.67;;
73428;SDS011;61643;49.564;17.412;2023-09-19T12:22:18;2.60;;;2.33;;
73428;SDS011;61643;49.564;17.412;2023-09-19T12:24:46;6.72;;;2.83;;
73428;SDS011;61643;49.564;17.412;2023-09-19T12:27:13;2.67;;;2.30;;
73428;SDS011;61643;49.564;17.412;2023-09-19T12:29:43;1.85;;;1.73;;
73428;SDS011;61643;49.564;17.412;2023-09-19T12:32:10;3.22;;;1.75;;
73428;SDS011;61643;49.564;17.412;2023-09-19T12:34:37;3.95;;;2.40;;
73428;SDS011;61643;49.564;17.412;2023-09-19T12:37:08;3.58;;;2.67;;
73428;SDS011;61643;49.564;17.412;2023-09-19T12:39:45;2.85;;;2.65;;
73428;SDS011;61643;49.564;17.412;2023-09-19T12:44:41;3.00;;;2.70;;
73428;SDS011;61643;49.564;17.412;2023-09-19T12:47:19;3.67;;;3.08;;
73428;SDS011;61643;49.564;17.412;2023-09-19T12:50:10;4.00;;;3.17;;
73428;SDS011;61643;49.564;17.412;2023-09-19T12:52:43;6.35;;;2.90;;
73428;SDS011;61643;49.564;17.412;2023-09-19T12:55:22;3.67;;;2.97;;
73428;SDS011;61643;49.564;17.412;2023-09-19T13:00:33;3.30;;;3.00;;
73428;SDS011;61643;49.564;17.412;2023-09-19T13:08:18;5.43;;;3.33;;
73428;SDS011;61643;49.564;17.412;2023-09-19T13:11:02;5.97;;;3.80;;
73428;SDS011;61643;49.564;17.412;2023-09-19T13:13:33;6.88;;;3.47;;
73428;SDS011;61643;49.564;17.412;2023-09-19T13:16:01;3.63;;;3.20;;
73428;SDS011;61643;49.564;17.412;2023-09-19T13:18:28;3.58;;;3.28;;
73428;SDS011;61643;49.564;17.412;2023-09-19T13:21:11;3.85;;;2.70;;
73428;SDS011;61643;49.564;17.412;2023-09-19T13:23:41;5.18;;;3.28;;
73428;SDS011;61643;49.564;17.412;2023-09-19T13:26:11;5.32;;;3.28;;
73428;SDS011;61643;49.564;17.412;2023-09-19T13:28:38;3.83;;;3.03;;
73428;SDS011;61643;49.564;17.412;2023-09-19T13:31:05;5.05;;;2.92;;
73428;SDS011;61643;49.564;17.412;2023-09-19T13:33:31;10.55;;;3.30;;
73428;SDS011;61643;49.564;17.412;2023-09-19T13:35:57;3.25;;;2.75;;
73428;SDS011;61643;49.564;17.412;2023-09-19T13:38:23;3.47;;;2.08;;
73428;SDS011;61643;49.564;17.412;2023-09-19T13:40:49;2.92;;;2.17;;
73428;SDS011;61643;49.564;17.412;2023-09-19T13:43:18;2.13;;;2.00;;
73428;SDS011;61643;49.564;17.412;2023-09-19T13:45:44;2.65;;;2.30;;
73428;SDS011;61643;49.564;17.412;2023-09-19T13:48:10;4.35;;;2.33;;
73428;SDS011;61643;49.564;17.412;2023-09-19T13:50:38;1.85;;;1.70;;
73428;SDS011;61643;49.564;17.412;2023-09-19T13:53:08;2.92;;;1.73;;
73428;SDS011;61643;49.564;17.412;2023-09-19T13:55:34;2.38;;;1.40;;
73428;SDS011;61643;49.564;17.412;2023-09-19T13:58:01;3.35;;;1.60;;
73428;SDS011;61643;49.564;17.412;2023-09-19T14:00:27;1.98;;;1.38;;
73428;SDS011;61643;49.564;17.412;2023-09-19T14:02:53;1.50;;;1.40;;
73428;SDS011;61643;49.564;17.412;2023-09-19T14:05:21;2.03;;;1.50;;
73428;SDS011;61643;49.564;17.412;2023-09-19T14:07:47;2.10;;;1.33;;
73428;SDS011;61643;49.564;17.412;2023-09-19T14:10:13;2.92;;;1.42;;
73428;SDS011;61643;49.564;17.412;2023-09-19T14:12:39;1.35;;;1.10;;
73428;SDS011;61643;49.564;17.412;2023-09-19T14:15:09;3.40;;;1.30;;
73428;SDS011;61643;49.564;17.412;2023-09-19T14:17:37;2.60;;;1.27;;
73428;SDS011;61643;49.564;17.412;2023-09-19T14:22:31;1.75;;;1.30;;
73428;SDS011;61643;49.564;17.412;2023-09-19T14:24:57;2.88;;;1.20;;
73428;SDS011;61643;49.564;17.412;2023-09-19T14:27:25;1.27;;;1.17;;
73428;SDS011;61643;49.564;17.412;2023-09-19T14:29:51;2.95;;;1.67;;
73428;SDS011;61643;49.564;17.412;2023-09-19T14:32:17;4.00;;;1.35;;
73428;SDS011;61643;49.564;17.412;2023-09-19T14:34:43;3.65;;;1.70;;
73428;SDS011;61643;49.564;17.412;2023-09-19T14:37:09;1.52;;;1.42;;
73428;SDS011;61643;49.564;17.412;2023-09-19T14:39:37;1.52;;;1.00;;
73428;SDS011;61643;49.564;17.412;2023-09-19T14:42:05;1.90;;;1.20;;
73428;SDS011;61643;49.564;17.412;2023-09-19T14:44:31;4.63;;;1.77;;
73428;SDS011;61643;49.564;17.412;2023-09-19T14:46:57;3.28;;;1.58;;
73428;SDS011;61643;49.564;17.412;2023-09-19T14:49:24;2.30;;;1.38;;
73428;SDS011;61643;49.564;17.412;2023-09-19T14:51:50;2.15;;;1.40;;
73428;SDS011;61643;49.564;17.412;2023-09-19T14:54:17;2.50;;;1.20;;
73428;SDS011;61643;49.564;17.412;2023-09-19T14:56:44;3.15;;;1.30;;
73428;SDS011;61643;49.564;17.412;2023-09-19T14:59:10;2.67;;;1.40;;
73428;SDS011;61643;49.564;17.412;2023-09-19T15:01:36;5.72;;;1.60;;
73428;SDS011;61643;49.564;17.412;2023-09-19T15:04:04;3.70;;;1.27;;
73428;SDS011;61643;49.564;17.412;2023-09-19T15:06:30;1.58;;;1.48;;
73428;SDS011;61643;49.564;17.412;2023-09-19T15:08:56;3.58;;;1.58;;
73428;SDS011;61643;49.564;17.412;2023-09-19T15:11:22;1.50;;;1.15;;
73428;SDS011;61643;49.564;17.412;2023-09-19T15:13:50;2.45;;;1.50;;
73428;SDS011;61643;49.564;17.412;2023-09-19T15:16:18;1.80;;;1.20;;
73428;SDS011;61643;49.564;17.412;2023-09-19T15:18:45;2.47;;;1.30;;
73428;SDS011;61643;49.564;17.412;2023-09-19T15:21:13;2.95;;;1.30;;
73428;SDS011;61643;49.564;17.412;2023-09-19T15:23:40;2.20;;;1.33;;
73428;SDS011;61643;49.564;17.412;2023-09-19T15:26:08;2.97;;;1.30;;
73428;SDS011;61643;49.564;17.412;2023-09-19T15:28:37;2.42;;;1.40;;
73428;SDS011;61643;49.564;17.412;2023-09-19T15:31:05;2.15;;;1.45;;
73428;SDS011;61643;49.564;17.412;2023-09-19T15:33:32;3.58;;;1.52;;
73428;SDS011;61643;49.564;17.412;2023-09-19T15:38:57;2.97;;;1.30;;
73428;SDS011;61643;49.564;17.412;2023-09-19T15:41:26;2.75;;;1.83;;
73428;SDS011;61643;49.564;17.412;2023-09-19T15:44:00;5.28;;;3.05;;
73428;SDS011;61643;49.564;17.412;2023-09-19T15:46:32;3.05;;;1.65;;
73428;SDS011;61643;49.564;17.412;2023-09-19T15:49:02;3.67;;;1.50;;
73428;SDS011;61643;49.564;17.412;2023-09-19T15:51:28;1.58;;;1.13;;
73428;SDS011;61643;49.564;17.412;2023-09-19T15:53:55;1.85;;;1.40;;
73428;SDS011;61643;49.564;17.412;2023-09-19T15:56:22;1.67;;;1.10;;
73428;SDS011;61643;49.564;17.412;2023-09-19T15:58:51;3.17;;;1.45;;
73428;SDS011;61643;49.564;17.412;2023-09-19T16:01:22;3.13;;;2.20;;
73428;SDS011;61643;49.564;17.412;2023-09-19T16:03:49;1.80;;;1.30;;
73428;SDS011;61643;49.564;17.412;2023-09-19T16:06:22;2.78;;;1.40;;
73428;SDS011;61643;49.564;17.412;2023-09-19T16:08:57;4.63;;;1.80;;
73428;SDS011;61643;49.564;17.412;2023-09-19T16:11:25;2.50;;;1.60;;
73428;SDS011;61643;49.564;17.412;2023-09-19T16:13:52;5.13;;;2.78;;
73428;SDS011;61643;49.564;17.412;2023-09-19T16:16:19;3.38;;;2.22;;
73428;SDS011;61643;49.564;17.412;2023-09-19T16:18:52;4.30;;;1.98;;
73428;SDS011;61643;49.564;17.412;2023-09-19T16:21:23;6.35;;;1.92;;